sensor_id;sensor_type;location;lat;lon;timestamp;pressure;altitude;pressure_sealevel;temperature;humidity
49709;BME280;35601;55.902;13.606;2024-01-25T00:00:06;99521.61;;;2.34;81.30
49709;BME280;35601;55.902;13.606;2024-01-25T00:02:31;99519.53;;;2.44;80.98
49709;BME280;35601;55.902;13.606;2024-01-25T00:04:57;99529.04;;;2.28;81.18
49709;BME280;35601;55.902;13.606;2024-01-25T00:07:22;99530.73;;;2.47;81.31
49709;BME280;35601;55.902;13.606;2024-01-25T00:09:47;99535.27;;;2.68;80.59
49709;BME280;35601;55.902;13.606;2024-01-25T00:12:13;99537.54;;;2.22;81.00
49709;BME280;35601;55.902;13.606;2024-01-25T00:14:38;99540.24;;;2.31;81.74
49709;BME280;35601;55.902;13.606;2024-01-25T00:17:03;99549.38;;;2.32;81.99
49709;BME280;35601;55.902;13.606;2024-01-25T00:19:29;99542.14;;;2.27;82.41
49709;BME280;35601;55.902;13.606;2024-01-25T00:21:54;99552.45;;;2.26;82.54
49709;BME280;35601;55.902;13.606;2024-01-25T00:24:19;99546.86;;;2.60;81.70
49709;BME280;35601;55.902;13.606;2024-01-25T00:26:44;99555.76;;;2.74;80.25
49709;BME280;35601;55.902;13.606;2024-01-25T00:29:10;99552.18;;;2.77;80.29
49709;BME280;35601;55.902;13.606;2024-01-25T00:31:35;99553.31;;;3.07;80.35
49709;BME280;35601;55.902;13.606;2024-01-25T00:34:02;99544.10;;;2.53;80.70
49709;BME280;35601;55.902;13.606;2024-01-25T00:36:27;99557.52;;;2.37;81.07
49709;BME280;35601;55.902;13.606;2024-01-25T00:38:53;99550.17;;;2.47;81.74
49709;BME280;35601;55.902;13.606;2024-01-25T00:41:19;99563.04;;;2.27;83.29
49709;BME280;35601;55.902;13.606;2024-01-25T00:43:44;99561.99;;;2.63;82.90
49709;BME280;35601;55.902;13.606;2024-01-25T00:46:10;99562.73;;;2.34;82.71
49709;BME280;35601;55.902;13.606;2024-01-25T00:48:36;99572.90;;;2.43;82.88
49709;BME280;35601;55.902;13.606;2024-01-25T00:51:01;99559.13;;;2.59;82.58
49709;BME280;35601;55.902;13.606;2024-01-25T00:53:27;99562.04;;;2.57;83.81
49709;BME280;35601;55.902;13.606;2024-01-25T00:55:52;99572.61;;;2.54;84.45
49709;BME280;35601;55.902;13.606;2024-01-25T00:58:18;99566.05;;;2.56;84.34
49709;BME280;35601;55.902;13.606;2024-01-25T01:00:44;99577.31;;;2.44;85.06
49709;BME280;35601;55.902;13.606;2024-01-25T01:03:09;99587.90;;;2.69;84.19
49709;BME280;35601;55.902;13.606;2024-01-25T01:05:35;99597.46;;;2.29;85.08
49709;BME280;35601;55.902;13.606;2024-01-25T01:08:00;99600.54;;;2.84;84.40
49709;BME280;35601;55.902;13.606;2024-01-25T01:10:25;99613.80;;;2.66;84.96
49709;BME280;35601;55.902;13.606;2024-01-25T01:12:51;99614.76;;;2.98;83.92
49709;BME280;35601;55.902;13.606;2024-01-25T01:15:17;99613.34;;;2.96;83.66
49709;BME280;35601;55.902;13.606;2024-01-25T01:17:42;99622.33;;;2.63;83.52
49709;BME280;35601;55.902;13.606;2024-01-25T01:20:08;99625.24;;;2.27;85.12
49709;BME280;35601;55.902;13.606;2024-01-25T01:22:33;99622.17;;;2.56;85.64
49709;BME280;35601;55.902;13.606;2024-01-25T01:24:59;99622.97;;;2.45;87.07
49709;BME280;35601;55.902;13.606;2024-01-25T01:27:24;99629.62;;;2.18;88.66
49709;BME280;35601;55.902;13.606;2024-01-25T01:29:49;99622.78;;;2.67;88.78
49709;BME280;35601;55.902;13.606;2024-01-25T01:32:15;99620.11;;;2.42;87.91
49709;BME280;35601;55.902;13.606;2024-01-25T01:34:40;99627.27;;;2.39;87.46
49709;BME280;35601;55.902;13.606;2024-01-25T01:37:06;99612.31;;;2.45;86.85
49709;BME280;35601;55.902;13.606;2024-01-25T01:39:31;99619.06;;;2.16;87.82
49709;BME280;35601;55.902;13.606;2024-01-25T01:41:57;99627.37;;;2.37;87.81
49709;BME280;35601;55.902;13.606;2024-01-25T01:44:22;99633.64;;;2.35;87.14
49709;BME280;35601;55.902;13.606;2024-01-25T01:46:48;99634.32;;;2.63;86.65
49709;BME280;35601;55.902;13.606;2024-01-25T01:49:14;99636.46;;;2.37;86.54
49709;BME280;35601;55.902;13.606;2024-01-25T01:51:40;99640.31;;;2.24;86.84
49709;BME280;35601;55.902;13.606;2024-01-25T01:54:07;99640.87;;;2.79;85.83
49709;BME280;35601;55.902;13.606;2024-01-25T01:56:29;99649.03;;;2.66;85.25
49709;BME280;35601;55.902;13.606;2024-01-25T01:58:56;99659.47;;;2.64;85.25
49709;BME280;35601;55.902;13.606;2024-01-25T02:01:20;99665.56;;;2.49;86.39
49709;BME280;35601;55.902;13.606;2024-01-25T02:03:45;99675.83;;;2.49;86.54
49709;BME280;35601;55.902;13.606;2024-01-25T02:06:10;99678.12;;;2.54;85.34
49709;BME280;35601;55.902;13.606;2024-01-25T02:08:35;99676.75;;;1.79;87.22
49709;BME280;35601;55.902;13.606;2024-01-25T02:11:02;99667.54;;;2.59;87.61
49709;BME280;35601;55.902;13.606;2024-01-25T02:13:27;99679.32;;;2.41;86.72
49709;BME280;35601;55.902;13.606;2024-01-25T02:15:53;99692.32;;;2.58;85.43
49709;BME280;35601;55.902;13.606;2024-01-25T02:18:18;99691.21;;;2.35;87.77
49709;BME280;35601;55.902;13.606;2024-01-25T02:20:43;99709.04;;;2.03;87.53
49709;BME280;35601;55.902;13.606;2024-01-25T02:23:09;99701.15;;;2.36;87.98
49709;BME280;35601;55.902;13.606;2024-01-25T02:25:35;99709.61;;;2.35;87.48
49709;BME280;35601;55.902;13.606;2024-01-25T02:28:00;99707.00;;;2.31;86.62
49709;BME280;35601;55.902;13.606;2024-01-25T02:30:25;99704.21;;;2.18;86.83
49709;BME280;35601;55.902;13.606;2024-01-25T02:32:51;99718.01;;;2.14;86.94
49709;BME280;35601;55.902;13.606;2024-01-25T02:35:16;99728.95;;;2.39;86.11
49709;BME280;35601;55.902;13.606;2024-01-25T02:37:41;99734.90;;;1.88;87.06
49709;BME280;35601;55.902;13.606;2024-01-25T02:40:08;99734.77;;;2.03;87.21
49709;BME280;35601;55.902;13.606;2024-01-25T02:42:32;99731.48;;;1.89;86.31
49709;BME280;35601;55.902;13.606;2024-01-25T02:44:58;99734.44;;;2.36;85.58
49709;BME280;35601;55.902;13.606;2024-01-25T02:47:23;99741.15;;;2.31;84.87
49709;BME280;35601;55.902;13.606;2024-01-25T02:49:49;99737.80;;;1.91;85.76
49709;BME280;35601;55.902;13.606;2024-01-25T02:52:15;99751.73;;;2.33;87.04
49709;BME280;35601;55.902;13.606;2024-01-25T02:54:40;99756.85;;;2.02;85.20
49709;BME280;35601;55.902;13.606;2024-01-25T02:57:05;99775.66;;;2.24;84.32
49709;BME280;35601;55.902;13.606;2024-01-25T02:59:31;99766.64;;;2.30;84.67
49709;BME280;35601;55.902;13.606;2024-01-25T03:01:57;99775.44;;;2.28;85.64
49709;BME280;35601;55.902;13.606;2024-01-25T03:04:22;99789.15;;;1.99;85.84
49709;BME280;35601;55.902;13.606;2024-01-25T03:06:47;99787.28;;;2.05;85.27
49709;BME280;35601;55.902;13.606;2024-01-25T03:09:12;99784.54;;;2.12;84.71
49709;BME280;35601;55.902;13.606;2024-01-25T03:11:37;99794.88;;;2.28;85.22
49709;BME280;35601;55.902;13.606;2024-01-25T03:14:03;99806.27;;;1.80;87.62
49709;BME280;35601;55.902;13.606;2024-01-25T03:16:28;99807.63;;;2.05;86.74
49709;BME280;35601;55.902;13.606;2024-01-25T03:18:54;99818.40;;;2.06;87.60
49709;BME280;35601;55.902;13.606;2024-01-25T03:21:19;99810.51;;;1.88;88.07
49709;BME280;35601;55.902;13.606;2024-01-25T03:23:44;99842.55;;;1.62;88.53
49709;BME280;35601;55.902;13.606;2024-01-25T03:26:09;99822.84;;;1.34;90.73
49709;BME280;35601;55.902;13.606;2024-01-25T03:28:35;99864.36;;;1.69;90.43
49709;BME280;35601;55.902;13.606;2024-01-25T03:31:01;99856.01;;;1.33;91.01
49709;BME280;35601;55.902;13.606;2024-01-25T03:33:26;99859.75;;;1.54;91.03
49709;BME280;35601;55.902;13.606;2024-01-25T03:35:51;99873.21;;;1.61;90.79
49709;BME280;35601;55.902;13.606;2024-01-25T03:38:17;99866.59;;;1.49;88.81
49709;BME280;35601;55.902;13.606;2024-01-25T03:40:43;99873.88;;;2.04;87.78
49709;BME280;35601;55.902;13.606;2024-01-25T03:43:09;99879.31;;;1.89;87.36
49709;BME280;35601;55.902;13.606;2024-01-25T03:45:35;99890.92;;;1.71;88.16
49709;BME280;35601;55.902;13.606;2024-01-25T03:48:00;99888.48;;;1.53;88.51
49709;BME280;35601;55.902;13.606;2024-01-25T03:50:26;99897.62;;;1.35;88.81
49709;BME280;35601;55.902;13.606;2024-01-25T03:52:51;99892.69;;;1.43;88.94
49709;BME280;35601;55.902;13.606;2024-01-25T03:55:16;99901.59;;;1.49;87.99
49709;BME280;35601;55.902;13.606;2024-01-25T03:57:41;99909.60;;;1.32;89.03
49709;BME280;35601;55.902;13.606;2024-01-25T04:00:08;99905.81;;;1.67;88.61
49709;BME280;35601;55.902;13.606;2024-01-25T04:02:33;99897.34;;;1.50;87.57
49709;BME280;35601;55.902;13.606;2024-01-25T04:04:58;99914.53;;;1.05;89.19
49709;BME280;35601;55.902;13.606;2024-01-25T04:07:23;99919.50;;;1.22;88.74
49709;BME280;35601;55.902;13.606;2024-01-25T04:09:49;99911.16;;;1.22;90.35
49709;BME280;35601;55.902;13.606;2024-01-25T04:12:15;99921.97;;;1.22;89.01
49709;BME280;35601;55.902;13.606;2024-01-25T04:14:40;99924.63;;;1.33;89.68
49709;BME280;35601;55.902;13.606;2024-01-25T04:17:05;99936.14;;;1.20;89.13
49709;BME280;35601;55.902;13.606;2024-01-25T04:19:30;99939.18;;;1.21;88.57
49709;BME280;35601;55.902;13.606;2024-01-25T04:21:55;99939.76;;;1.23;87.88
49709;BME280;35601;55.902;13.606;2024-01-25T04:24:21;99932.94;;;1.32;88.45
49709;BME280;35601;55.902;13.606;2024-01-25T04:26:46;99937.81;;;0.95;88.48
49709;BME280;35601;55.902;13.606;2024-01-25T04:29:12;99944.35;;;1.30;88.26
49709;BME280;35601;55.902;13.606;2024-01-25T04:31:42;99942.65;;;1.38;87.99
49709;BME280;35601;55.902;13.606;2024-01-25T04:34:02;99949.99;;;1.29;89.21
49709;BME280;35601;55.902;13.606;2024-01-25T04:36:27;99961.01;;;1.45;87.94
49709;BME280;35601;55.902;13.606;2024-01-25T04:38:53;99967.32;;;1.43;87.20
49709;BME280;35601;55.902;13.606;2024-01-25T04:41:19;99973.49;;;1.44;86.39
49709;BME280;35601;55.902;13.606;2024-01-25T04:43:45;99981.80;;;1.22;86.94
49709;BME280;35601;55.902;13.606;2024-01-25T04:46:11;99980.19;;;1.37;85.88
49709;BME280;35601;55.902;13.606;2024-01-25T04:48:36;99983.79;;;1.52;86.16
49709;BME280;35601;55.902;13.606;2024-01-25T04:51:02;99989.07;;;1.09;86.52
49709;BME280;35601;55.902;13.606;2024-01-25T04:53:27;100005.47;;;0.84;87.55
49709;BME280;35601;55.902;13.606;2024-01-25T04:55:54;100004.27;;;0.99;86.94
49709;BME280;35601;55.902;13.606;2024-01-25T04:58:18;100003.28;;;1.19;86.99
49709;BME280;35601;55.902;13.606;2024-01-25T05:00:44;100009.56;;;0.72;86.98
49709;BME280;35601;55.902;13.606;2024-01-25T05:03:09;100015.45;;;1.44;86.53
49709;BME280;35601;55.902;13.606;2024-01-25T05:05:35;100017.32;;;1.05;86.16
49709;BME280;35601;55.902;13.606;2024-01-25T05:08:01;100005.33;;;0.65;87.09
49709;BME280;35601;55.902;13.606;2024-01-25T05:10:26;100020.86;;;1.00;86.65
49709;BME280;35601;55.902;13.606;2024-01-25T05:12:51;100025.20;;;1.12;86.31
49709;BME280;35601;55.902;13.606;2024-01-25T05:15:16;100024.98;;;1.32;84.77
49709;BME280;35601;55.902;13.606;2024-01-25T05:17:42;100027.13;;;1.07;84.51
49709;BME280;35601;55.902;13.606;2024-01-25T05:20:09;100040.79;;;1.12;85.62
49709;BME280;35601;55.902;13.606;2024-01-25T05:22:34;100046.86;;;1.06;84.55
49709;BME280;35601;55.902;13.606;2024-01-25T05:24:59;100057.13;;;1.11;84.50
49709;BME280;35601;55.902;13.606;2024-01-25T05:27:24;100065.86;;;1.03;85.19
49709;BME280;35601;55.902;13.606;2024-01-25T05:29:50;100069.42;;;1.25;84.64
49709;BME280;35601;55.902;13.606;2024-01-25T05:32:16;100072.12;;;0.64;84.93
49709;BME280;35601;55.902;13.606;2024-01-25T05:34:42;100088.50;;;1.12;85.63
49709;BME280;35601;55.902;13.606;2024-01-25T05:37:07;100098.42;;;0.98;85.11
49709;BME280;35601;55.902;13.606;2024-01-25T05:39:33;100106.07;;;1.08;84.21
49709;BME280;35601;55.902;13.606;2024-01-25T05:41:59;100108.78;;;1.40;82.86
49709;BME280;35601;55.902;13.606;2024-01-25T05:44:24;100110.69;;;1.26;82.82
49709;BME280;35601;55.902;13.606;2024-01-25T05:46:49;100122.01;;;1.41;83.06
49709;BME280;35601;55.902;13.606;2024-01-25T05:49:15;100131.27;;;1.50;82.04
49709;BME280;35601;55.902;13.606;2024-01-25T05:51:40;100133.78;;;1.22;82.04
49709;BME280;35601;55.902;13.606;2024-01-25T05:54:06;100144.60;;;1.02;82.27
49709;BME280;35601;55.902;13.606;2024-01-25T05:56:31;100141.92;;;1.26;82.48
49709;BME280;35601;55.902;13.606;2024-01-25T05:58:57;100149.76;;;1.03;83.27
49709;BME280;35601;55.902;13.606;2024-01-25T06:01:22;100153.61;;;0.66;84.49
49709;BME280;35601;55.902;13.606;2024-01-25T06:03:48;100164.98;;;0.78;86.44
49709;BME280;35601;55.902;13.606;2024-01-25T06:06:13;100163.94;;;1.21;84.85
49709;BME280;35601;55.902;13.606;2024-01-25T06:08:39;100168.61;;;1.22;84.12
49709;BME280;35601;55.902;13.606;2024-01-25T06:11:04;100172.97;;;0.91;84.76
49709;BME280;35601;55.902;13.606;2024-01-25T06:13:29;100177.95;;;1.13;83.74
49709;BME280;35601;55.902;13.606;2024-01-25T06:15:54;100180.19;;;1.28;82.92
49709;BME280;35601;55.902;13.606;2024-01-25T06:18:20;100187.85;;;1.18;82.92
49709;BME280;35601;55.902;13.606;2024-01-25T06:20:46;100181.46;;;1.18;83.24
49709;BME280;35601;55.902;13.606;2024-01-25T06:23:12;100184.70;;;1.16;83.21
49709;BME280;35601;55.902;13.606;2024-01-25T06:25:37;100185.83;;;0.76;83.77
49709;BME280;35601;55.902;13.606;2024-01-25T06:28:04;100197.11;;;0.91;84.25
49709;BME280;35601;55.902;13.606;2024-01-25T06:30:29;100206.02;;;0.84;84.56
49709;BME280;35601;55.902;13.606;2024-01-25T06:32:54;100218.13;;;1.17;83.71
49709;BME280;35601;55.902;13.606;2024-01-25T06:35:19;100216.82;;;0.95;82.89
49709;BME280;35601;55.902;13.606;2024-01-25T06:37:44;100226.23;;;1.26;82.95
49709;BME280;35601;55.902;13.606;2024-01-25T06:40:10;100238.55;;;1.18;83.02
49709;BME280;35601;55.902;13.606;2024-01-25T06:42:36;100248.74;;;1.08;83.63
49709;BME280;35601;55.902;13.606;2024-01-25T06:45:02;100254.66;;;1.27;83.23
49709;BME280;35601;55.902;13.606;2024-01-25T06:47:27;100261.03;;;1.07;83.05
49709;BME280;35601;55.902;13.606;2024-01-25T06:49:52;100266.56;;;1.09;83.04
49709;BME280;35601;55.902;13.606;2024-01-25T06:52:18;100270.89;;;1.35;82.70
49709;BME280;35601;55.902;13.606;2024-01-25T06:54:43;100277.17;;;1.06;82.60
49709;BME280;35601;55.902;13.606;2024-01-25T06:57:08;100288.24;;;0.99;82.60
49709;BME280;35601;55.902;13.606;2024-01-25T06:59:34;100296.14;;;1.01;83.10
49709;BME280;35601;55.902;13.606;2024-01-25T07:02:00;100299.15;;;1.25;83.57
49709;BME280;35601;55.902;13.606;2024-01-25T07:04:25;100305.08;;;1.14;83.13
49709;BME280;35601;55.902;13.606;2024-01-25T07:06:51;100308.61;;;1.01;83.55
49709;BME280;35601;55.902;13.606;2024-01-25T07:09:17;100317.65;;;0.68;82.76
49709;BME280;35601;55.902;13.606;2024-01-25T07:11:41;100325.38;;;1.02;83.04
49709;BME280;35601;55.902;13.606;2024-01-25T07:14:07;100332.00;;;0.92;83.15
49709;BME280;35601;55.902;13.606;2024-01-25T07:16:32;100339.70;;;0.82;82.83
49709;BME280;35601;55.902;13.606;2024-01-25T07:18:57;100343.48;;;1.03;83.60
49709;BME280;35601;55.902;13.606;2024-01-25T07:21:23;100342.77;;;1.05;83.02
49709;BME280;35601;55.902;13.606;2024-01-25T07:23:49;100347.19;;;1.11;83.29
49709;BME280;35601;55.902;13.606;2024-01-25T07:26:18;100350.79;;;1.12;83.69
49709;BME280;35601;55.902;13.606;2024-01-25T07:28:40;100357.13;;;0.97;83.74
49709;BME280;35601;55.902;13.606;2024-01-25T07:31:05;100364.73;;;1.18;83.63
49709;BME280;35601;55.902;13.606;2024-01-25T07:33:30;100375.25;;;0.81;83.23
49709;BME280;35601;55.902;13.606;2024-01-25T07:35:56;100385.68;;;1.20;83.69
49709;BME280;35601;55.902;13.606;2024-01-25T07:38:21;100399.13;;;1.20;83.73
49709;BME280;35601;55.902;13.606;2024-01-25T07:40:47;100412.53;;;1.02;83.71
49709;BME280;35601;55.902;13.606;2024-01-25T07:43:11;100420.46;;;0.88;83.98
49709;BME280;35601;55.902;13.606;2024-01-25T07:45:37;100424.83;;;0.80;83.99
49709;BME280;35601;55.902;13.606;2024-01-25T07:48:03;100425.72;;;1.40;83.54
49709;BME280;35601;55.902;13.606;2024-01-25T07:50:27;100438.20;;;0.75;83.99
49709;BME280;35601;55.902;13.606;2024-01-25T07:52:54;100442.46;;;1.06;83.90
49709;BME280;35601;55.902;13.606;2024-01-25T07:55:18;100451.30;;;1.35;84.11
49709;BME280;35601;55.902;13.606;2024-01-25T07:57:43;100464.43;;;0.86;84.16
49709;BME280;35601;55.902;13.606;2024-01-25T08:00:09;100477.93;;;0.85;84.63
49709;BME280;35601;55.902;13.606;2024-01-25T08:02:34;100480.46;;;0.84;84.63
49709;BME280;35601;55.902;13.606;2024-01-25T08:04:59;100481.41;;;1.16;84.77
49709;BME280;35601;55.902;13.606;2024-01-25T08:07:25;100492.40;;;0.99;86.18
49709;BME280;35601;55.902;13.606;2024-01-25T08:09:50;100490.29;;;1.13;86.08
49709;BME280;35601;55.902;13.606;2024-01-25T08:12:16;100499.65;;;1.12;85.91
49709;BME280;35601;55.902;13.606;2024-01-25T08:14:41;100509.25;;;0.90;85.39
49709;BME280;35601;55.902;13.606;2024-01-25T08:17:07;100516.61;;;1.36;84.58
49709;BME280;35601;55.902;13.606;2024-01-25T08:19:32;100518.53;;;1.04;84.10
49709;BME280;35601;55.902;13.606;2024-01-25T08:21:58;100526.06;;;1.09;84.62
49709;BME280;35601;55.902;13.606;2024-01-25T08:24:24;100519.29;;;1.04;84.24
49709;BME280;35601;55.902;13.606;2024-01-25T08:26:50;100526.90;;;1.47;84.08
49709;BME280;35601;55.902;13.606;2024-01-25T08:29:16;100535.40;;;1.67;83.59
49709;BME280;35601;55.902;13.606;2024-01-25T08:31:41;100548.45;;;1.23;83.38
49709;BME280;35601;55.902;13.606;2024-01-25T08:34:07;100556.23;;;1.37;82.78
49709;BME280;35601;55.902;13.606;2024-01-25T08:36:32;100564.55;;;1.49;82.21
49709;BME280;35601;55.902;13.606;2024-01-25T08:38:57;100573.41;;;1.43;81.72
49709;BME280;35601;55.902;13.606;2024-01-25T08:41:23;100579.27;;;1.23;82.16
49709;BME280;35601;55.902;13.606;2024-01-25T08:43:49;100582.98;;;1.24;82.25
49709;BME280;35601;55.902;13.606;2024-01-25T08:46:15;100587.51;;;1.08;82.08
49709;BME280;35601;55.902;13.606;2024-01-25T08:48:40;100590.84;;;1.09;81.96
49709;BME280;35601;55.902;13.606;2024-01-25T08:51:05;100593.72;;;1.38;81.67
49709;BME280;35601;55.902;13.606;2024-01-25T08:53:30;100592.66;;;1.25;82.13
49709;BME280;35601;55.902;13.606;2024-01-25T08:55:56;100592.01;;;1.36;81.80
49709;BME280;35601;55.902;13.606;2024-01-25T08:58:21;100596.03;;;1.38;81.51
49709;BME280;35601;55.902;13.606;2024-01-25T09:00:46;100607.16;;;1.40;81.61
49709;BME280;35601;55.902;13.606;2024-01-25T09:03:12;100615.48;;;1.20;81.45
49709;BME280;35601;55.902;13.606;2024-01-25T09:05:37;100616.63;;;1.37;81.30
49709;BME280;35601;55.902;13.606;2024-01-25T09:08:03;100616.68;;;1.38;81.13
49709;BME280;35601;55.902;13.606;2024-01-25T09:10:28;100620.91;;;1.46;80.98
49709;BME280;35601;55.902;13.606;2024-01-25T09:12:53;100624.16;;;1.63;80.81
49709;BME280;35601;55.902;13.606;2024-01-25T09:15:19;100627.42;;;1.76;80.26
49709;BME280;35601;55.902;13.606;2024-01-25T09:17:44;100638.16;;;1.58;80.04
49709;BME280;35601;55.902;13.606;2024-01-25T09:20:10;100651.15;;;1.77;79.79
49709;BME280;35601;55.902;13.606;2024-01-25T09:22:35;100655.67;;;1.97;79.50
49709;BME280;35601;55.902;13.606;2024-01-25T09:25:01;100662.91;;;1.69;78.51
49709;BME280;35601;55.902;13.606;2024-01-25T09:27:26;100663.38;;;1.38;77.89
49709;BME280;35601;55.902;13.606;2024-01-25T09:29:51;100674.84;;;1.40;76.62
49709;BME280;35601;55.902;13.606;2024-01-25T09:32:17;100687.34;;;1.52;76.93
49709;BME280;35601;55.902;13.606;2024-01-25T09:34:42;100691.97;;;1.62;76.88
49709;BME280;35601;55.902;13.606;2024-01-25T09:37:07;100698.91;;;1.53;76.80
49709;BME280;35601;55.902;13.606;2024-01-25T09:39:32;100703.82;;;1.62;76.57
49709;BME280;35601;55.902;13.606;2024-01-25T09:41:58;100707.84;;;1.53;75.44
49709;BME280;35601;55.902;13.606;2024-01-25T09:44:24;100717.71;;;1.33;73.98
49709;BME280;35601;55.902;13.606;2024-01-25T09:46:48;100728.64;;;1.47;74.05
49709;BME280;35601;55.902;13.606;2024-01-25T09:49:14;100724.97;;;1.03;74.43
49709;BME280;35601;55.902;13.606;2024-01-25T09:51:40;100731.83;;;1.27;73.71
49709;BME280;35601;55.902;13.606;2024-01-25T09:54:05;100740.35;;;1.36;73.01
49709;BME280;35601;55.902;13.606;2024-01-25T09:56:31;100745.62;;;1.52;72.62
49709;BME280;35601;55.902;13.606;2024-01-25T09:58:56;100747.84;;;1.63;72.20
49709;BME280;35601;55.902;13.606;2024-01-25T10:01:21;100755.69;;;1.79;71.99
49709;BME280;35601;55.902;13.606;2024-01-25T10:03:46;100758.32;;;1.66;72.06
49709;BME280;35601;55.902;13.606;2024-01-25T10:06:12;100764.25;;;1.50;71.40
49709;BME280;35601;55.902;13.606;2024-01-25T10:08:37;100766.92;;;1.69;71.62
49709;BME280;35601;55.902;13.606;2024-01-25T10:11:02;100764.38;;;2.22;70.88
49709;BME280;35601;55.902;13.606;2024-01-25T10:13:27;100761.83;;;1.78;70.56
49709;BME280;35601;55.902;13.606;2024-01-25T10:15:53;100766.80;;;2.21;70.76
49709;BME280;35601;55.902;13.606;2024-01-25T10:18:18;100769.99;;;1.92;69.74
49709;BME280;35601;55.902;13.606;2024-01-25T10:20:43;100775.42;;;2.04;68.85
49709;BME280;35601;55.902;13.606;2024-01-25T10:23:09;100782.26;;;2.15;68.29
49709;BME280;35601;55.902;13.606;2024-01-25T10:25:35;100784.62;;;2.20;67.84
49709;BME280;35601;55.902;13.606;2024-01-25T10:28:00;100785.36;;;2.46;67.75
49709;BME280;35601;55.902;13.606;2024-01-25T10:30:27;100787.35;;;2.26;67.39
49709;BME280;35601;55.902;13.606;2024-01-25T10:32:51;100792.94;;;2.17;66.83
49709;BME280;35601;55.902;13.606;2024-01-25T10:35:18;100791.36;;;1.97;66.18
49709;BME280;35601;55.902;13.606;2024-01-25T10:37:42;100798.05;;;2.27;66.33
49709;BME280;35601;55.902;13.606;2024-01-25T10:40:09;100802.41;;;2.25;65.11
49709;BME280;35601;55.902;13.606;2024-01-25T10:42:33;100806.61;;;2.53;64.62
49709;BME280;35601;55.902;13.606;2024-01-25T10:44:58;100809.97;;;2.59;63.82
49709;BME280;35601;55.902;13.606;2024-01-25T10:47:23;100815.83;;;2.67;63.84
49709;BME280;35601;55.902;13.606;2024-01-25T10:49:49;100817.04;;;2.45;64.02
49709;BME280;35601;55.902;13.606;2024-01-25T10:52:15;100820.71;;;2.48;62.89
49709;BME280;35601;55.902;13.606;2024-01-25T10:54:39;100824.87;;;2.46;63.08
49709;BME280;35601;55.902;13.606;2024-01-25T10:57:05;100825.53;;;2.44;63.75
49709;BME280;35601;55.902;13.606;2024-01-25T10:59:30;100833.14;;;2.85;64.23
49709;BME280;35601;55.902;13.606;2024-01-25T11:01:56;100837.36;;;2.68;63.15
49709;BME280;35601;55.902;13.606;2024-01-25T11:04:21;100846.83;;;2.73;62.23
49709;BME280;35601;55.902;13.606;2024-01-25T11:06:46;100848.55;;;3.14;61.12
49709;BME280;35601;55.902;13.606;2024-01-25T11:09:18;100849.40;;;3.24;61.27
49709;BME280;35601;55.902;13.606;2024-01-25T11:11:37;100856.74;;;2.82;59.51
49709;BME280;35601;55.902;13.606;2024-01-25T11:14:02;100858.41;;;2.63;59.34
49709;BME280;35601;55.902;13.606;2024-01-25T11:16:29;100865.27;;;2.80;59.87
49709;BME280;35601;55.902;13.606;2024-01-25T11:18:55;100868.19;;;2.97;58.79
49709;BME280;35601;55.902;13.606;2024-01-25T11:21:26;100871.85;;;2.79;58.44
49709;BME280;35601;55.902;13.606;2024-01-25T11:23:44;100872.58;;;2.74;58.58
49709;BME280;35601;55.902;13.606;2024-01-25T11:26:08;100872.36;;;2.76;58.12
49709;BME280;35601;55.902;13.606;2024-01-25T11:28:34;100876.49;;;3.08;58.03
49709;BME280;35601;55.902;13.606;2024-01-25T11:30:59;100880.19;;;2.54;57.93
49709;BME280;35601;55.902;13.606;2024-01-25T11:33:24;100884.89;;;2.71;57.50
49709;BME280;35601;55.902;13.606;2024-01-25T11:35:54;100885.79;;;2.93;56.76
49709;BME280;35601;55.902;13.606;2024-01-25T11:38:15;100889.58;;;2.73;56.30
49709;BME280;35601;55.902;13.606;2024-01-25T11:40:40;100881.03;;;2.60;57.05
49709;BME280;35601;55.902;13.606;2024-01-25T11:43:06;100882.33;;;2.61;57.41
49709;BME280;35601;55.902;13.606;2024-01-25T11:45:31;100890.84;;;2.49;57.42
49709;BME280;35601;55.902;13.606;2024-01-25T11:47:56;100892.71;;;2.53;57.53
49709;BME280;35601;55.902;13.606;2024-01-25T11:50:21;100900.30;;;2.66;57.64
49709;BME280;35601;55.902;13.606;2024-01-25T11:52:46;100899.80;;;2.47;57.20
49709;BME280;35601;55.902;13.606;2024-01-25T11:55:12;100906.43;;;2.47;56.58
49709;BME280;35601;55.902;13.606;2024-01-25T11:57:39;100911.37;;;2.49;56.81
49709;BME280;35601;55.902;13.606;2024-01-25T12:00:03;100912.75;;;2.29;56.14
49709;BME280;35601;55.902;13.606;2024-01-25T12:02:28;100911.37;;;2.37;55.90
49709;BME280;35601;55.902;13.606;2024-01-25T12:04:53;100919.20;;;2.18;55.97
49709;BME280;35601;55.902;13.606;2024-01-25T12:07:18;100922.19;;;2.18;55.89
49709;BME280;35601;55.902;13.606;2024-01-25T12:09:43;100926.86;;;2.55;56.14
49709;BME280;35601;55.902;13.606;2024-01-25T12:12:09;100929.20;;;2.75;55.36
49709;BME280;35601;55.902;13.606;2024-01-25T12:14:34;100934.32;;;2.51;55.19
49709;BME280;35601;55.902;13.606;2024-01-25T12:16:59;100934.96;;;2.27;55.02
49709;BME280;35601;55.902;13.606;2024-01-25T12:19:25;100944.67;;;2.06;55.59
49709;BME280;35601;55.902;13.606;2024-01-25T12:21:50;100942.79;;;2.27;55.68
49709;BME280;35601;55.902;13.606;2024-01-25T12:24:15;100945.36;;;2.33;55.75
49709;BME280;35601;55.902;13.606;2024-01-25T12:26:42;100939.10;;;2.13;55.88
49709;BME280;35601;55.902;13.606;2024-01-25T12:29:06;100937.13;;;2.11;56.11
49709;BME280;35601;55.902;13.606;2024-01-25T12:31:31;100935.35;;;2.12;55.61
49709;BME280;35601;55.902;13.606;2024-01-25T12:33:57;100936.60;;;2.62;55.49
49709;BME280;35601;55.902;13.606;2024-01-25T12:36:22;100942.39;;;2.68;55.68
49709;BME280;35601;55.902;13.606;2024-01-25T12:38:47;100943.65;;;2.51;55.19
49709;BME280;35601;55.902;13.606;2024-01-25T12:41:12;100947.29;;;2.44;55.73